Saturday, February 24, 2018, 8:10 AM GMT
Back to Local

CYOW, Ottawa Int'L. Ont.

Location: , , Canada Lat: 45.317
Local Time: 8:10 AM GMT ( 8:10 GMT) Lon: -75.667
Time Zone: GMT Elev: 380 ft

Show me the last for .
Show Decoded

2018-02-24 07:04 METAR CYOW 240704Z 24009KT 15SM BKN046 02/01 A3004 RMK SC7 SLP179 =
2018-02-24 07:00 METAR CYOW 240700Z 24010KT 15SM BKN047 03/01 A3004 RMK SC7 SLP178 =
2018-02-24 06:00 METAR CYOW 240600Z 25006KT 15SM FEW042 FEW240 02/01 A3001 RMK SC2CI1 CI TR
                 SLP170 =
2018-02-24 05:35 METAR CYOW 240535Z 24005KT 15SM SCT042 02/02 A3000 RMK SC3 SLP167 =
2018-02-24 05:00 METAR CYOW 240500Z 24008KT 10SM BKN042 03/02 A2999 RMK SC7 SLP164 =
2018-02-24 04:20 METAR CYOW 240420Z 23006KT 8SM FEW004 OVC037 02/02 A2998 RMK SF2SC6 SLP161 =
2018-02-24 04:00 METAR CYOW 240400Z 20005KT 5SM BR OVC003 02/01 A2997 RMK SF8 SLP157 =
2018-02-24 03:44 METAR CYOW 240344Z 20006KT 190V250 4SM BR OVC003 02/01 A2998 RMK SF8 SLP159 =
2018-02-24 03:00 METAR CYOW 240300Z 27006KT 200V270 2SM BR OVC003 01/01 A2998 RMK FG1SF7 SLP158 =
2018-02-24 02:00 METAR CYOW 240200Z 24004KT 2SM BR OVC004 00/M00 A2998 RMK FG1SF7 SLP158 =
2018-02-24 01:00 METAR CYOW 240100Z 00000KT 2SM -FZRA BR OVC002 M01/M01 A2998 RMK FG2SF6 SLP159 =
2018-02-24 00:00 METAR CYOW 240000Z 16003KT 1 1/2SM -FZRA BR OVC002 M01/M01 A2999 RMK FG2SF6
                 SLP164 =
2018-02-23 23:00 METAR CYOW 232300Z 09005KT 2SM -FZRA BR OVC005 M01/M02 A3001 RMK FG2SF6 SLP171 =
2018-02-23 22:16 METAR CYOW 232216Z 08005KT 1 1/2SM -FZRA BR OVC005 M02/M02 A3003 RMK FG5SF3
                 SLP178 =
2018-02-23 22:00 METAR CYOW 232200Z 09006KT 2SM -FZRA BR OVC006 M02/M03 A3003 RMK FG2SC6 SLP178 =
2018-02-23 21:00 METAR CYOW 232100Z 09006KT 2SM -FZRA BR OVC008 M03/M03 A3006 RMK FG2SC6 SLP188 =
2018-02-23 20:00 METAR CYOW 232000Z 08009KT 3SM -FZRA BR OVC014 M03/M05 A3011 RMK SC8 SLP206 =
2018-02-23 19:00 METAR CYOW 231900Z 08011G17KT 15SM -FZRA OVC016 M03/M07 A3014 RMK SC8 PRESFR
                 SLP215 =
2018-02-23 18:00 METAR CYOW 231800Z 09012KT 15SM -FZRA OVC022 M03/M07 A3021 RMK SC8 PRESFR SLP240
                 =
2018-02-23 17:39 METAR CYOW 231739Z 09013KT 15SM -FZRA OVC024 M03/M09 A3023 RMK SC8 PRESFR SLP244
                 =
2018-02-23 17:00 METAR CYOW 231700Z 09013KT 15SM BKN028 OVC070 M04/M09 A3029 RMK SC6AC2 PRESFR
                 SLP265 =
2018-02-23 16:00 METAR CYOW 231600Z 08014KT 15SM BKN084 M04/M10 A3036 RMK AC7 PRESFR SLP291 =
2018-02-23 15:00 METAR CYOW 231500Z 08011KT 15SM BKN098 M05/M10 A3044 RMK AC7 PRESFR SLP319 =
2018-02-23 14:00 METAR CYOW 231400Z 09011KT 15SM BKN100 M06/M11 A3048 RMK AC7 PRESFR SLP331 =
2018-02-23 13:00 METAR CYOW 231300Z 08008KT 15SM SCT110 BKN130 M06/M11 A3053 RMK AC3AC4 SLP348 =
2018-02-23 12:00 METAR CYOW 231200Z 07006KT 15SM BKN110 M07/M11 A3055 RMK AC7 SLP356 =
2018-02-23 11:00 METAR CYOW 231100Z 06009KT 15SM FEW090 BKN140 M07/M11 A3057 RMK AC1AC6 PRESFR
                 SLP360 =
2018-02-23 10:00 METAR CYOW 231000Z 07006KT 15SM SCT090 BKN210 M07/M10 A3059 RMK AC3CI4 SLP369 =
2018-02-23 09:00 METAR CYOW 230900Z 09005KT 15SM BKN097 M06/M10 A3064 RMK AC6 SLP383 =

Support USWX by starting your Amazon purchase here.